Time;durP1;ratioP1;P1;durP2;ratioP2;P2;SDS_P1;SDS_P2;PMS_P1;PMS_P2;Temp;Humidity;BMP_temperature;BMP_pressure;BME280_temperature;BME280_humidity;BME280_pressure;Samples;Min_cycle;Max_cycle;Signal;HPM_P1;HPM_P2
2021/10/30 00:01:23;;;;;;;1999.90;999.90;;;;;;;10.27;100.00;100152.13;5091952;28;20040;-33
2021/10/30 00:03:50;;;;;;;1999.90;999.90;;;;;;;10.25;100.00;100156.09;5091980;28;20107;-33
2021/10/30 00:06:17;;;;;;;1999.90;999.90;;;;;;;10.20;100.00;100154.09;5091874;28;20034;-33
2021/10/30 00:08:43;;;;;;;1999.90;999.90;;;;;;;10.17;100.00;100149.22;5091926;28;20077;-33
2021/10/30 00:11:09;;;;;;;1999.90;999.90;;;;;;;10.09;100.00;100144.25;5091936;28;20024;-33
2021/10/30 00:13:34;;;;;;;1999.90;999.90;;;;;;;10.02;100.00;100147.00;5091864;28;20105;-33
2021/10/30 00:16:00;;;;;;;1999.90;999.90;;;;;;;10.02;100.00;100143.53;5092152;28;20024;-33
2021/10/30 00:18:26;;;;;;;1999.90;999.90;;;;;;;9.92;100.00;100136.09;5091752;28;20377;-33
2021/10/30 00:20:53;;;;;;;1999.90;999.90;;;;;;;9.90;100.00;100132.88;5092114;28;20036;-33
2021/10/30 00:23:18;;;;;;;1999.90;999.90;;;;;;;9.78;100.00;100138.97;5091833;28;20063;-33
2021/10/30 00:25:44;;;;;;;1999.90;999.90;;;;;;;9.80;100.00;100138.75;5091694;28;20064;-33
2021/10/30 00:28:09;;;;;;;1999.90;999.90;;;;;;;9.75;100.00;100139.44;5091762;28;20027;-33
2021/10/30 00:30:35;;;;;;;1999.90;999.90;;;;;;;9.78;100.00;100138.16;5091703;28;20027;-34
2021/10/30 00:33:01;;;;;;;1999.90;999.90;;;;;;;9.73;100.00;100140.69;5091660;28;20035;-33
2021/10/30 00:35:27;;;;;;;1999.90;999.90;;;;;;;9.78;100.00;100136.31;5091697;28;20054;-33
2021/10/30 00:37:53;;;;;;;1999.90;999.90;;;;;;;9.75;100.00;100139.44;5091852;28;20391;-33
2021/10/30 00:40:19;;;;;;;1999.90;999.90;;;;;;;9.77;100.00;100129.34;5091923;28;20522;-33
2021/10/30 00:42:45;;;;;;;1999.90;999.90;;;;;;;9.79;100.00;100134.44;5091607;28;20482;-33
2021/10/30 00:45:10;;;;;;;1999.90;999.90;;;;;;;9.88;100.00;100130.44;5090597;28;20028;-33
2021/10/30 00:47:36;;;;;;;1999.90;999.90;;;;;;;9.85;100.00;100122.06;5091805;28;20028;-33
2021/10/30 00:50:04;;;;;;;1999.90;999.90;;;;;;;9.79;100.00;100129.94;5092333;28;20476;-33
2021/10/30 00:52:30;;;;;;;1999.90;999.90;;;;;;;9.78;100.00;100125.66;5091778;28;20032;-33
2021/10/30 00:54:58;;;;;;;1999.90;999.90;;;;;;;9.75;100.00;100120.00;5091496;28;20473;-33
2021/10/30 00:57:25;;;;;;;1999.90;999.90;;;;;;;9.76;100.00;100122.44;5091676;28;20109;-33
2021/10/30 00:59:52;;;;;;;1999.90;999.90;;;;;;;9.72;100.00;100128.41;5091343;28;20028;-33
2021/10/30 01:02:18;;;;;;;1999.90;999.90;;;;;;;9.71;100.00;100135.59;5091778;28;20399;-33
2021/10/30 01:04:45;;;;;;;1999.90;999.90;;;;;;;9.71;100.00;100127.59;5091370;28;20107;-33
2021/10/30 01:07:11;;;;;;;1999.90;999.90;;;;;;;9.71;100.00;100126.81;5091623;28;20035;-33
2021/10/30 01:09:37;;;;;;;1999.90;999.90;;;;;;;9.71;100.00;100127.59;5095084;28;20024;-34
2021/10/30 01:12:03;;;;;;;1999.90;999.90;;;;;;;9.70;100.00;100122.50;5095298;28;20039;-33
2021/10/30 01:14:30;;;;;;;1999.90;999.90;;;;;;;9.67;100.00;100131.75;5094990;28;20028;-33
2021/10/30 01:17:04;;;;;;;1999.90;999.90;;;;;;;9.62;100.00;100123.66;5094838;28;20024;-33
2021/10/30 01:19:31;;;;;;;1999.90;999.90;;;;;;;9.57;100.00;100123.50;5094878;28;20086;-33
2021/10/30 01:21:58;;;;;;;1999.90;999.90;;;;;;;9.52;100.00;100121.53;5095114;28;20445;-34
2021/10/30 01:24:24;;;;;;;1999.90;999.90;;;;;;;9.49;100.00;100132.63;5095030;28;20403;-33
2021/10/30 01:26:50;;;;;;;1999.90;999.90;;;;;;;9.50;100.00;100125.44;5094634;28;20035;-33
2021/10/30 01:29:16;;;;;;;;;;;;;;;9.45;100.00;100132.28;5095083;28;20032;-33
2021/10/30 01:31:41;;;;;;;1999.90;999.90;;;;;;;9.40;100.00;100124.16;5094650;28;19919;-33
2021/10/30 01:34:09;;;;;;;1999.90;999.90;;;;;;;9.38;100.00;100123.56;5094930;28;20028;-33
2021/10/30 01:36:35;;;;;;;1999.90;999.90;;;;;;;9.37;100.00;100116.63;5094330;28;20047;-34
2021/10/30 01:39:04;;;;;;;1999.90;999.90;;;;;;;9.35;100.00;100124.03;5094797;28;20043;-33
2021/10/30 01:41:30;;;;;;;1999.90;999.90;;;;;;;9.36;100.00;100125.63;5093184;28;20027;-33
2021/10/30 01:43:56;;;;;;;1999.90;999.90;;;;;;;9.39;100.00;100117.19;5094674;28;20028;-33
2021/10/30 01:46:23;;;;;;;1999.90;999.90;;;;;;;9.39;100.00;100124.38;5094369;28;20032;-33
2021/10/30 01:48:49;;;;;;;1999.90;999.90;;;;;;;9.37;100.00;100121.16;5094190;28;20028;-33
2021/10/30 01:51:16;;;;;;;1999.90;999.90;;;;;;;9.36;100.00;100122.16;5094274;28;20455;-33
2021/10/30 01:53:42;;;;;;;;;;;;;;;9.32;100.00;100126.31;5094513;28;20071;-33
2021/10/30 01:56:09;;;;;;;1999.90;999.90;;;;;;;9.34;100.00;100121.56;5094128;28;20367;-33
2021/10/30 01:58:35;;;;;;;1999.90;999.90;;;;;;;9.36;100.00;100120.31;5094270;28;20050;-33
2021/10/30 02:01:01;;;;;;;1999.90;999.90;;;;;;;9.45;100.00;100118.16;5094130;28;20461;-33
2021/10/30 02:03:30;;;;;;;1999.90;999.90;;;;;;;9.49;100.00;100119.31;5094045;28;20511;-33
2021/10/30 02:05:57;;;;;;;1999.90;999.90;;;;;;;9.54;100.00;100116.78;5093987;28;20424;-33
2021/10/30 02:08:24;;;;;;;1999.90;999.90;;;;;;;9.61;100.00;100116.69;5093811;28;20114;-33
2021/10/30 02:10:50;;;;;;;1999.90;999.90;;;;;;;9.64;100.00;100117.03;5094236;28;20034;-33
2021/10/30 02:13:16;;;;;;;;;;;;;;;9.67;100.00;100120.31;5095159;28;20031;-33
2021/10/30 02:15:42;;;;;;;1999.90;999.90;;;;;;;9.67;100.00;100123.78;5093759;28;19935;-33
2021/10/30 02:18:08;;;;;;;1999.90;999.90;;;;;;;9.73;100.00;100130.03;5093573;28;20506;-33
2021/10/30 02:20:34;;;;;;;1999.90;999.90;;;;;;;9.72;100.00;100123.91;5093815;28;20029;-33
2021/10/30 02:23:00;;;;;;;1999.90;999.90;;;;;;;9.72;100.00;100126.56;5093970;28;20552;-33
2021/10/30 02:25:26;;;;;;;1999.90;999.90;;;;;;;9.73;100.00;100119.41;5093681;28;20040;-34
2021/10/30 02:27:53;;;;;;;1999.90;999.90;;;;;;;9.78;100.00;100127.53;5093453;28;20480;-34
2021/10/30 02:30:20;;;;;;;1999.90;999.90;;;;;;;9.78;100.00;100132.84;5093459;28;20032;-33
2021/10/30 02:32:46;;;;;;;1999.90;999.90;;;;;;;9.77;100.00;100125.88;5093468;28;20104;-34
2021/10/30 02:35:12;;;;;;;1999.90;999.90;;;;;;;9.73;100.00;100122.84;5093785;28;20032;-33
2021/10/30 02:37:39;;;;;;;1999.90;999.90;;;;;;;9.72;100.00;100128.41;5093293;28;20028;-33
2021/10/30 02:40:06;;;;;;;1999.90;999.90;;;;;;;9.75;100.00;100128.78;5093204;28;20032;-33
2021/10/30 02:42:32;;;;;;;1999.90;999.90;;;;;;;9.75;100.00;100133.31;5093838;28;20024;-33
2021/10/30 02:45:00;;;;;;;1999.90;999.90;;;;;;;9.72;100.00;100129.25;5093229;28;20108;-33
2021/10/30 02:47:26;;;;;;;1999.90;999.90;;;;;;;9.77;100.00;100132.00;5093320;28;20036;-33
2021/10/30 02:49:52;;;;;;;;;;;;;;;9.81;100.00;100129.72;5093896;28;20081;-33
2021/10/30 02:52:17;;;;;;;1999.90;999.90;;;;;;;9.78;100.00;100130.19;5093031;28;20342;-33
2021/10/30 02:54:43;;;;;;;1999.90;999.90;;;;;;;9.80;100.00;100126.22;5093034;28;20043;-33
2021/10/30 02:57:08;;;;;;;1999.90;999.90;;;;;;;9.78;100.00;100123.00;5093246;28;20396;-33
2021/10/30 02:59:34;;;;;;;1999.90;999.90;;;;;;;9.86;100.00;100131.69;5093148;28;20085;-33
2021/10/30 03:02:00;;;;;;;1999.90;999.90;;;;;;;9.90;100.00;100130.22;5092948;28;20410;-33
2021/10/30 03:04:26;;;;;;;1999.90;999.90;;;;;;;9.93;100.00;100135.88;5093190;28;20028;-33
2021/10/30 03:06:51;;;;;;;1999.90;999.90;;;;;;;9.97;100.00;100134.38;5092741;28;20403;-33
2021/10/30 03:09:17;;;;;;;1999.90;999.90;;;;;;;9.99;100.00;100126.16;5092776;28;20024;-33
2021/10/30 03:11:43;;;;;;;1999.90;999.90;;;;;;;10.03;100.00;100131.81;5092732;28;20032;-33
2021/10/30 03:14:09;;;;;;;1999.90;999.90;;;;;;;10.04;100.00;100133.47;5092702;28;20024;-33
2021/10/30 03:16:34;;;;;;;1999.90;999.90;;;;;;;10.04;100.00;100131.59;5092613;28;20035;-33
2021/10/30 03:19:00;;;;;;;1999.90;999.90;;;;;;;10.02;100.00;100133.69;5092429;28;20032;-33
2021/10/30 03:21:26;;;;;;;1999.90;999.90;;;;;;;9.98;100.00;100132.53;5092560;28;20142;-33
2021/10/30 03:23:51;;;;;;;1999.90;999.90;;;;;;;9.98;100.00;100136.00;5093277;28;20065;-33
2021/10/30 03:26:17;;;;;;;1999.90;999.90;;;;;;;9.95;100.00;100133.81;5092683;28;20032;-33
2021/10/30 03:28:43;;;;;;;1999.90;999.90;;;;;;;9.93;100.00;100130.53;5092279;28;20526;-33
2021/10/30 03:31:09;;;;;;;1999.90;999.90;;;;;;;9.99;100.00;100134.94;5091790;28;20035;-33
2021/10/30 03:33:35;;;;;;;1999.90;999.90;;;;;;;9.99;100.00;100137.63;5092668;28;20023;-33
2021/10/30 03:36:01;;;;;;;1999.90;999.90;;;;;;;10.03;100.00;100135.31;5092637;28;20499;-33
2021/10/30 03:38:26;;;;;;;1999.90;999.90;;;;;;;10.03;100.00;100139.81;5092160;28;20410;-34
2021/10/30 03:40:52;;;;;;;1999.90;999.90;;;;;;;10.07;100.00;100141.81;5092361;28;20035;-33
2021/10/30 03:43:18;;;;;;;1999.90;999.90;;;;;;;10.09;100.00;100136.25;5092242;28;20503;-33
2021/10/30 03:45:44;;;;;;;1999.90;999.90;;;;;;;10.09;100.00;100131.72;5092188;28;20047;-33
2021/10/30 03:48:09;;;;;;;1999.90;999.90;;;;;;;10.10;100.00;100133.38;5092443;28;20032;-33
2021/10/30 03:50:38;;;;;;;1999.90;999.90;;;;;;;10.14;100.00;100134.53;5092409;28;20111;-33
2021/10/30 03:53:07;;;;;;;1999.90;999.90;;;;;;;10.12;100.00;100128.59;5092448;28;20028;-33
2021/10/30 03:55:33;;;;;;;1999.90;999.90;;;;;;;10.15;100.00;100127.34;5091984;28;20043;-33
2021/10/30 03:58:00;;;;;;;1999.90;999.90;;;;;;;10.13;100.00;100134.72;5091918;28;20055;-33
2021/10/30 04:00:25;;;;;;;1999.90;999.90;;;;;;;10.11;100.00;100142.94;5091946;28;20032;-34
2021/10/30 04:02:51;;;;;;;1999.90;999.90;;;;;;;10.10;100.00;100148.50;5091993;28;20105;-33
2021/10/30 04:05:17;;;;;;;1999.90;999.90;;;;;;;10.10;100.00;100148.50;5091924;28;20099;-33
2021/10/30 04:07:43;;;;;;;1999.90;999.90;;;;;;;10.13;100.00;100150.72;5092204;28;20026;-33
2021/10/30 04:10:09;;;;;;;1999.90;999.90;;;;;;;10.12;100.00;100144.59;5091881;28;20508;-33
2021/10/30 04:12:35;;;;;;;1999.90;999.90;;;;;;;10.10;100.00;100138.69;5092184;28;20024;-33
2021/10/30 04:15:01;;;;;;;1999.90;999.90;;;;;;;10.11;100.00;100137.63;5091900;28;20491;-34
2021/10/30 04:17:27;;;;;;;1999.90;999.90;;;;;;;10.07;100.00;100139.16;5091833;28;20111;-33
2021/10/30 04:19:53;;;;;;;1999.90;999.90;;;;;;;10.04;100.00;100139.59;5091741;28;20124;-33
2021/10/30 04:22:18;;;;;;;1999.90;999.90;;;;;;;10.00;100.00;100141.09;5092062;28;20028;-33
2021/10/30 04:24:44;;;;;;;1999.90;999.90;;;;;;;9.97;100.00;100139.69;5091801;28;20070;-33
2021/10/30 04:27:09;;;;;;;1999.90;999.90;;;;;;;9.95;100.00;100133.81;5091792;28;20032;-33
2021/10/30 04:29:35;;;;;;;1999.90;999.90;;;;;;;9.90;100.00;100136.34;5091566;28;20020;-33
2021/10/30 04:32:03;;;;;;;1999.90;999.90;;;;;;;9.90;100.00;100136.34;5092019;28;20028;-33
2021/10/30 04:37:20;;;;;;;1999.90;999.90;;;;;;;9.80;100.00;100142.19;5083076;28;20065;-33
2021/10/30 04:39:49;;;;;;;1999.90;999.90;;;;;;;9.80;100.00;100141.41;5091457;28;20148;-33
2021/10/30 04:42:16;;;;;;;1999.90;999.90;;;;;;;9.83;100.00;100142.81;5091567;28;20115;-34
2021/10/30 04:44:43;;;;;;;1999.90;999.90;;;;;;;9.86;100.00;100137.03;5095666;28;20028;-33
2021/10/30 04:47:10;;;;;;;1999.90;999.90;;;;;;;9.92;100.00;100138.75;5095779;28;20380;-33
2021/10/30 04:49:37;;;;;;;1999.90;999.90;;;;;;;9.94;100.00;100129.50;5095833;28;20088;-33
2021/10/30 04:52:03;;;;;;;1999.90;999.90;;;;;;;9.91;100.00;100137.13;5095716;28;20032;-33
2021/10/30 04:54:29;;;;;;;1999.90;999.90;;;;;;;9.89;100.00;100132.03;5095117;28;20043;-34
2021/10/30 04:56:55;;;;;;;1999.90;999.90;;;;;;;9.88;100.00;100134.94;5095653;28;20024;-33
2021/10/30 04:59:21;;;;;;;1999.90;999.90;;;;;;;9.84;100.00;100131.09;5095439;28;20038;-33
2021/10/30 05:01:46;;;;;;;1999.90;999.90;;;;;;;9.82;100.00;100134.00;5096006;28;20463;-33
2021/10/30 05:04:12;;;;;;;1999.90;999.90;;;;;;;9.87;100.00;100134.13;5095526;28;20047;-34
2021/10/30 05:06:38;;;;;;;1999.90;999.90;;;;;;;9.84;100.00;100139.06;5095136;28;20488;-33
2021/10/30 05:09:04;;;;;;;1999.90;999.90;;;;;;;9.87;100.00;100136.78;5095489;28;20036;-33
2021/10/30 05:11:29;;;;;;;1999.90;999.90;;;;;;;9.83;100.00;100146.25;5095735;28;20384;-33
2021/10/30 05:13:55;;;;;;;1999.90;999.90;;;;;;;9.87;100.00;100138.66;5094922;28;20024;-33
2021/10/30 05:16:21;;;;;;;1999.90;999.90;;;;;;;9.94;100.00;100134.84;5094920;28;20022;-33
2021/10/30 05:18:47;;;;;;;1999.90;999.90;;;;;;;10.01;100.00;100142.72;5094708;28;20028;-33
2021/10/30 05:21:12;;;;;;;1999.90;999.90;;;;;;;10.04;100.00;100150.22;5095688;28;20020;-34
2021/10/30 05:23:39;;;;;;;1999.90;999.90;;;;;;;10.08;100.00;100137.28;5094822;28;20074;-33
2021/10/30 05:26:05;;;;;;;1999.90;999.90;;;;;;;10.13;100.00;100148.88;5094991;28;20127;-33
2021/10/30 05:28:32;;;;;;;1999.90;999.90;;;;;;;10.13;100.00;100148.06;5095454;28;20111;-33
2021/10/30 05:30:57;;;;;;;1999.90;999.90;;;;;;;10.20;100.00;100146.09;5094676;28;20026;-33
2021/10/30 05:33:23;;;;;;;1999.90;999.90;;;;;;;10.42;100.00;100142.91;5094647;28;20020;-33
2021/10/30 05:35:49;;;;;;;1999.90;999.90;;;;;;;10.68;100.00;100139.75;5094568;28;20027;-34
2021/10/30 05:38:17;;;;;;;1999.90;999.90;;;;;;;10.87;100.00;100142.28;5094778;28;20039;-33
2021/10/30 05:40:43;;;;;;;1999.90;999.90;;;;;;;11.01;100.00;100138.31;5094719;28;20061;-33
2021/10/30 05:43:11;;;;;;;1999.90;999.90;;;;;;;11.34;100.00;100136.81;5094788;28;20373;-34
2021/10/30 05:45:44;;;;;;;1999.90;999.90;;;;;;;11.39;100.00;100149.44;5094317;28;20078;-34
2021/10/30 05:48:13;;;;;;;1999.90;999.90;;;;;;;11.52;100.00;100151.03;5094353;28;20483;-33
2021/10/30 05:50:39;;;;;;;1999.90;999.90;;;;;;;11.38;100.00;100147.84;5094187;28;20024;-33
2021/10/30 05:53:04;;;;;;;1999.90;999.90;;;;;;;11.50;100.00;100153.94;5094425;28;20028;-33
2021/10/30 05:55:30;;;;;;;1999.90;999.90;;;;;;;11.50;100.00;100153.13;5093715;28;20511;-34
2021/10/30 05:57:56;;;;;;;1999.90;999.90;;;;;;;11.82;100.00;100153.44;5094473;28;20517;-33
2021/10/30 06:00:22;;;;;;;1999.90;999.90;;;;;;;11.93;100.00;100158.94;5092795;28;20134;-34
2021/10/30 06:02:48;;;;;;;1999.90;999.90;;;;;;;12.12;100.00;100156.88;5094035;28;20032;-33
2021/10/30 06:05:14;;;;;;;1999.90;999.90;;;;;;;12.16;100.00;100155.34;5094048;28;20031;-33
2021/10/30 06:07:39;;;;;;;1999.90;999.90;;;;;;;12.33;100.00;100160.69;5094302;28;20028;-34
2021/10/30 06:10:06;;;;;;;1999.90;999.90;;;;;;;12.28;100.00;100163.28;5093812;28;20480;-34
2021/10/30 06:12:36;;;;;;;1999.90;999.90;;;;;;;12.09;100.00;100163.53;5093747;28;20028;-34
2021/10/30 06:15:02;;;;;;;1999.90;999.90;;;;;;;12.10;100.00;100165.16;5094114;28;20096;-34
2021/10/30 06:17:28;;;;;;;1999.90;999.90;;;;;;;11.97;100.00;100162.78;5093795;28;20025;-34
2021/10/30 06:19:53;;;;;;;1999.90;999.90;;;;;;;12.03;100.00;100164.50;5093605;28;20064;-34
2021/10/30 06:22:21;;;;;;;1999.90;999.90;;;;;;;11.98;100.00;100167.06;5093632;28;20032;-34
2021/10/30 06:24:46;;;;;;;1999.90;999.90;;;;;;;11.90;100.00;100162.91;5093609;28;20107;-34
2021/10/30 06:27:12;;;;;;;1999.90;999.90;;;;;;;12.05;100.00;100162.38;5093930;28;20109;-34
2021/10/30 06:29:38;;;;;;;1999.90;999.90;;;;;;;12.31;100.00;100166.28;5093718;28;20043;-34
2021/10/30 06:32:05;;;;;;;1999.90;999.90;;;;;;;12.43;100.00;100175.03;5093464;28;20472;-33
2021/10/30 06:34:30;;;;;;;1999.90;999.90;;;;;;;12.37;100.00;100161.81;5093361;28;20028;-33
2021/10/30 06:36:56;;;;;;;1999.90;999.90;;;;;;;12.68;100.00;100168.41;5093500;28;20027;-33
2021/10/30 06:39:22;;;;;;;1999.90;999.90;;;;;;;12.57;100.00;100172.81;5093175;28;20035;-33
2021/10/30 06:41:48;;;;;;;1999.90;999.90;;;;;;;12.52;100.00;100166.56;5092023;28;20024;-33
2021/10/30 06:44:14;;;;;;;1999.90;999.90;;;;;;;12.38;100.00;100169.59;5093577;28;20059;-33
2021/10/30 06:46:40;;;;;;;1999.90;999.90;;;;;;;12.39;100.00;100167.72;5093221;28;20491;-33
2021/10/30 06:49:10;;;;;;;;;;;;;;;12.50;100.00;100166.81;5093578;28;20055;-33
2021/10/30 06:51:36;;;;;;;1999.90;999.90;;;;;;;12.46;100.00;100170.25;5093405;28;19912;-34
2021/10/30 06:54:02;;;;;;;1999.90;999.90;;;;;;;12.54;100.00;100169.84;5093013;28;20066;-33
2021/10/30 06:56:28;;;;;;;1999.90;999.90;;;;;;;12.60;100.00;100171.53;5092920;28;20020;-33
2021/10/30 06:58:53;;;;;;;1999.90;999.90;;;;;;;12.69;100.00;100170.03;5092909;28;20024;-34
2021/10/30 07:01:19;;;;;;;1999.90;999.90;;;;;;;12.75;100.00;100171.72;5092847;28;20020;-33
2021/10/30 07:03:46;;;;;;;1999.90;999.90;;;;;;;12.57;100.00;100172.00;5093141;28;20135;-33
2021/10/30 07:06:12;;;;;;;1999.90;999.90;;;;;;;12.83;100.00;100172.34;5091968;28;20110;-34
2021/10/30 07:08:38;;;;;;;1999.90;999.90;;;;;;;12.91;100.00;100183.44;5092923;28;20040;-33
2021/10/30 07:11:04;;;;;;;1999.90;999.90;;;;;;;12.89;100.00;100177.53;5092778;28;20036;-33
2021/10/30 07:13:30;;;;;;;1999.90;999.90;;;;;;;12.99;100.00;100170.69;5092673;28;20115;-34
2021/10/30 07:15:56;;;;;;;1999.90;999.90;;;;;;;12.95;100.00;100175.75;5092990;28;20103;-33
2021/10/30 07:18:21;;;;;;;1999.90;999.90;;;;;;;12.82;100.00;100186.78;5092901;28;20036;-33
2021/10/30 07:20:48;;;;;;;1999.90;999.90;;;;;;;12.91;100.00;100180.75;5092470;28;20403;-33
2021/10/30 07:23:16;;;;;;;1999.90;999.90;;;;;;;13.02;100.00;100180.91;5092871;28;20111;-33
2021/10/30 07:25:42;;;;;;;1999.90;999.90;;;;;;;12.99;100.00;100176.03;5092474;28;20069;-33
2021/10/30 07:28:08;;;;;;;1999.90;999.90;;;;;;;12.99;100.00;100181.41;5093328;28;20024;-33
2021/10/30 07:30:34;;;;;;;1999.90;999.90;;;;;;;13.11;100.00;100179.41;5092329;28;20036;-33
2021/10/30 07:32:59;;;;;;;1999.90;999.90;;;;;;;13.29;100.00;100183.66;5092682;28;20066;-34
2021/10/30 07:35:25;;;;;;;1999.90;999.90;;;;;;;13.26;100.00;100178.81;5092373;28;20028;-33
2021/10/30 07:37:58;;;;;;;1999.90;999.90;;;;;;;13.28;100.00;100179.34;5092622;28;20034;-33
2021/10/30 07:40:24;;;;;;;1999.90;999.90;;;;;;;13.23;100.00;100182.78;5092387;28;20419;-34
2021/10/30 07:42:49;;;;;;;1999.90;999.90;;;;;;;13.36;100.00;100183.47;5092286;28;20016;-33
2021/10/30 07:45:15;;;;;;;1999.90;999.90;;;;;;;13.37;100.00;100180.53;5092227;28;20067;-33
2021/10/30 07:47:40;;;;;;;1999.90;999.90;;;;;;;13.25;100.00;100183.31;5092542;28;20028;-34
2021/10/30 07:50:07;;;;;;;1999.90;999.90;;;;;;;13.45;100.00;100188.16;5092056;28;20681;-34
2021/10/30 07:52:33;;;;;;;1999.90;999.90;;;;;;;13.63;100.00;100178.16;5093099;28;20468;-34
2021/10/30 07:54:59;;;;;;;1999.90;999.90;;;;;;;13.80;100.00;100178.03;5091897;28;20044;-34
2021/10/30 07:57:25;;;;;;;1999.90;999.90;;;;;;;13.98;100.00;100171.53;5092198;28;20055;-34
2021/10/30 07:59:50;;;;;;;1999.90;999.90;;;;;;;14.35;100.00;100173.44;5091896;28;20483;-34
2021/10/30 08:02:18;;;;;;;1999.90;999.90;;;;;;;14.32;100.00;100171.25;5092020;28;20016;-34
2021/10/30 08:04:44;;;;;;;1999.90;999.90;;;;;;;14.18;100.00;100171.69;5091889;28;20036;-35
2021/10/30 08:07:09;;;;;;;1999.90;999.90;;;;;;;14.08;100.00;100168.94;5092305;28;20024;-34
2021/10/30 08:09:35;;;;;;;1999.90;999.90;;;;;;;13.93;100.00;100166.13;5091956;28;20553;-34
2021/10/30 08:12:02;;;;;;;1999.90;999.90;;;;;;;14.05;100.00;100168.63;5091807;28;20081;-34
2021/10/30 08:14:27;;;;;;;;;;;;;;;14.08;100.00;100166.25;5092297;28;20032;-34
2021/10/30 08:16:53;;;;;;;1999.90;999.90;;;;;;;14.31;100.00;100165.06;5091774;28;20482;-34
2021/10/30 08:19:19;;;;;;;1999.90;999.90;;;;;;;14.20;100.00;100168.75;5095987;28;20547;-34
2021/10/30 08:21:45;;;;;;;1999.90;999.90;;;;;;;14.13;100.00;100174.31;5096226;28;20032;-34
2021/10/30 08:24:11;;;;;;;1999.90;999.90;;;;;;;14.10;100.00;100174.03;5095950;28;20107;-33
2021/10/30 08:26:37;;;;;;;1999.90;999.90;;;;;;;13.97;100.00;100173.38;5095498;28;20541;-34
2021/10/30 08:29:04;;;;;;;1999.90;999.90;;;;;;;13.63;100.00;100184.31;5095890;28;20020;-34
2021/10/30 08:31:31;;;;;;;1999.90;999.90;;;;;;;13.64;100.00;100182.47;5096061;28;20028;-34
2021/10/30 08:33:57;;;;;;;1999.90;999.90;;;;;;;13.60;100.00;100186.69;5095821;28;20024;-34
2021/10/30 08:36:27;;;;;;;1999.90;999.90;;;;;;;13.71;100.00;100191.06;5095944;28;20025;-34
2021/10/30 08:38:53;;;;;;;1999.90;999.90;;;;;;;13.69;100.00;100185.19;5095445;28;20035;-34
2021/10/30 08:41:19;;;;;;;1999.90;999.90;;;;;;;13.81;100.00;100179.66;5095279;28;20035;-34
2021/10/30 08:43:47;;;;;;;1999.90;999.90;;;;;;;13.36;100.00;100186.97;5095595;28;20028;-34
2021/10/30 08:46:14;;;;;;;1999.90;999.90;;;;;;;13.51;100.00;100186.34;5095858;28;20020;-34
2021/10/30 08:48:40;;;;;;;1999.90;999.90;;;;;;;13.43;100.00;100186.78;5095404;28;20020;-34
2021/10/30 08:51:06;;;;;;;1999.90;999.90;;;;;;;13.30;100.00;100185.25;5095374;28;20027;-34
2021/10/30 08:53:32;;;;;;;1999.90;999.90;;;;;;;13.24;100.00;100179.06;5095630;28;20026;-34
2021/10/30 08:56:03;;;;;;;1999.90;999.90;;;;;;;13.27;100.00;100183.91;5093891;28;20469;-34
2021/10/30 08:58:29;;;;;;;1999.90;999.90;;;;;;;13.23;100.00;100187.34;5095470;28;20032;-34
2021/10/30 09:00:58;;;;;;;1999.90;999.90;;;;;;;13.39;100.00;100185.66;5095497;28;20032;-34
2021/10/30 09:03:24;;;;;;;1999.90;999.90;;;;;;;13.31;100.00;100176.16;5095230;28;20062;-34
2021/10/30 09:05:54;;;;;;;1999.90;999.90;;;;;;;13.30;100.00;100178.06;5095494;28;20032;-34
2021/10/30 09:08:23;;;;;;;1999.90;999.90;;;;;;;13.26;100.00;100178.81;5094993;28;20024;-34
2021/10/30 09:10:51;;;;;;;1999.90;999.90;;;;;;;13.16;100.00;100184.03;5094949;28;20498;-34
2021/10/30 09:13:21;;;;;;;1999.90;999.90;;;;;;;13.13;100.00;100171.94;5094995;28;20020;-34
2021/10/30 09:15:50;;;;;;;1999.90;999.90;;;;;;;13.01;100.00;100169.41;5094988;28;20027;-34
2021/10/30 09:18:38;;;;;;;1999.90;999.90;;;;;;;13.03;100.00;100163.78;5094822;28;20028;-34
2021/10/30 09:21:04;;;;;;;1999.90;999.90;;;;;;;12.69;100.00;100171.91;5094884;28;20055;-34
2021/10/30 09:23:35;;;;;;;1999.90;999.90;;;;;;;12.35;100.00;100169.28;5095169;28;20044;-34
2021/10/30 09:26:07;;;;;;;1999.90;999.90;;;;;;;12.14;100.00;100163.63;5094797;28;20044;-34
2021/10/30 09:28:48;;;;;;;1999.90;999.90;;;;;;;11.94;100.00;100161.41;5094080;28;20032;-34
2021/10/30 09:31:15;;;;;;;1999.90;999.90;;;;;;;12.18;100.00;100163.94;5094635;28;20024;-34
2021/10/30 09:33:57;;;;;;;1999.90;999.90;;;;;;;12.32;100.00;100164.41;5094910;28;20020;-34
2021/10/30 09:36:38;;;;;;;1999.90;999.90;;;;;;;12.23;100.00;100162.16;5094576;28;20043;-34
2021/10/30 09:39:06;;;;;;;1999.90;999.90;;;;;;;12.28;100.00;100157.94;5094784;28;20062;-34
2021/10/30 09:41:36;;;;;;;1999.90;999.90;;;;;;;12.32;100.00;100162.56;5094394;28;20024;-34
2021/10/30 09:44:07;;;;;;;1999.90;999.90;;;;;;;12.61;100.00;100151.72;5094698;28;20020;-33
2021/10/30 09:46:46;;;;;;;1999.90;999.90;;;;;;;12.84;100.00;100147.25;5094426;28;20030;-34
2021/10/30 09:49:16;;;;;;;1999.90;999.90;;;;;;;13.11;100.00;100141.94;5095177;28;20028;-34
2021/10/30 09:51:43;;;;;;;1999.90;999.90;;;;;;;13.10;100.00;100151.03;5094203;28;20495;-34
2021/10/30 09:54:09;;;;;;;1999.90;999.90;;;;;;;13.07;100.00;100144.31;5094391;28;20398;-34
2021/10/30 09:56:42;;;;;;;1999.90;999.90;;;;;;;13.06;100.00;100147.25;5094743;28;20051;-34
2021/10/30 09:59:10;;;;;;;1999.90;999.90;;;;;;;13.22;100.00;100143.69;5094142;28;20110;-34
2021/10/30 10:01:37;;;;;;;1999.90;999.90;;;;;;;13.40;100.00;100136.41;5093978;28;20024;-34
2021/10/30 10:04:04;;;;;;;1999.90;999.90;;;;;;;13.37;100.00;100128.88;5094393;28;20467;-34
2021/10/30 10:06:32;;;;;;;1999.90;999.90;;;;;;;13.40;100.00;100137.22;5093945;28;20088;-34
2021/10/30 10:08:58;;;;;;;1999.90;999.90;;;;;;;13.35;100.00;100134.50;5093974;28;20024;-34
2021/10/30 10:11:25;;;;;;;1999.90;999.90;;;;;;;13.43;100.00;100122.53;5094201;28;20020;-34
2021/10/30 10:13:51;;;;;;;;;;;;;;;13.37;100.00;100121.66;5094264;28;20031;-34
2021/10/30 10:16:19;;;;;;;1999.90;999.90;;;;;;;13.27;100.00;100119.66;5094146;28;20401;-34
2021/10/30 10:18:49;;;;;;;1999.90;999.90;;;;;;;13.55;100.00;100117.00;5093714;28;20107;-34
2021/10/30 10:21:26;;;;;;;1999.90;999.90;;;;;;;13.58;100.00;100106.63;5093990;28;20039;-34
2021/10/30 10:23:51;;;;;;;;;;;;;;;13.60;100.00;100117.06;5094185;28;20024;-34
2021/10/30 10:26:17;;;;;;;1999.90;999.90;;;;;;;13.48;100.00;100104.66;5093928;28;19969;-34
2021/10/30 10:28:43;;;;;;;1999.90;999.90;;;;;;;13.55;100.00;100108.97;5093621;28;20483;-34
2021/10/30 10:31:26;;;;;;;;;;;;;;;13.64;100.00;100102.13;5093912;28;20114;-34
2021/10/30 10:34:13;;;;;;;1999.90;999.90;;;;;;;13.56;100.00;100103.38;5093508;28;19913;-33
2021/10/30 10:36:40;;;;;;;1999.90;999.90;;;;;;;13.52;100.00;100101.47;5093474;28;20061;-33
2021/10/30 10:39:07;;;;;;;1999.90;999.90;;;;;;;13.53;100.00;100089.69;5093313;28;20027;-33
2021/10/30 10:41:44;;;;;;;1999.90;999.90;;;;;;;13.45;100.00;100096.31;5093168;28;20028;-33
2021/10/30 10:44:22;;;;;;;1999.90;999.90;;;;;;;13.43;100.00;100091.22;5093343;28;20038;-33
2021/10/30 10:46:50;;;;;;;1999.90;999.90;;;;;;;13.56;100.00;100091.88;5093443;28;20032;-33